Time;durP1;ratioP1;P1;durP2;ratioP2;P2;SDS_P1;SDS_P2;PMS_P1;PMS_P2;Temp;Humidity;BMP_temperature;BMP_pressure;BME280_temperature;BME280_humidity;BME280_pressure;Samples;Min_cycle;Max_cycle;Signal;HPM_P1;HPM_P2
2022/11/04 00:01:44;;;;;;;;;8.25;6.50;;;;;19.87;60.05;99563.38;5058328;28;47129;-43
2022/11/04 00:04:10;;;;;;;;;6.50;5.00;;;;;19.87;60.07;99562.53;5059865;28;45327;-46
2022/11/04 00:06:35;;;;;;;;;10.00;6.75;;;;;19.87;60.15;99557.22;5059939;28;45307;-45
2022/11/04 00:09:01;;;;;;;;;5.50;5.00;;;;;19.87;60.42;99559.88;5041960;28;45318;-44
2022/11/04 00:14:11;;;;;;;;;8.75;7.00;;;;;19.84;60.25;99547.66;5038828;28;45482;-42
2022/11/04 00:19:21;;;;;;;;;8.25;7.00;;;;;19.83;60.15;99529.19;5063351;28;45240;-43
2022/11/04 00:30:04;;;;;;;;;5.50;5.00;;;;;19.80;60.13;99518.72;5062536;28;45429;-43
2022/11/04 00:35:14;;;;;;;;;8.25;7.25;;;;;19.77;60.33;99517.09;5062244;28;45194;-44
2022/11/04 00:37:41;;;;;;;;;6.25;5.00;;;;;19.77;60.16;99517.94;5062259;28;63234;-43
2022/11/04 00:40:07;;;;;;;;;6.50;4.25;;;;;19.77;60.20;99519.75;5062909;28;45453;-44
2022/11/04 00:42:32;;;;;;;;;5.75;4.00;;;;;19.77;59.93;99517.09;5061248;28;46158;-44
2022/11/04 00:44:58;;;;;;;;;6.50;4.75;;;;;19.77;60.55;99519.75;5061484;28;45342;-43
2022/11/04 00:47:23;;;;;;;;;3.75;3.75;;;;;19.76;60.56;99518.88;5061579;28;45386;-43
2022/11/04 00:49:49;;;;;;;;;6.25;4.25;;;;;19.75;60.36;99516.31;5062292;28;56290;-43
2022/11/04 00:52:14;;;;;;;;;7.50;4.50;;;;;19.75;60.43;99516.31;5061707;28;68140;-45
2022/11/04 00:54:39;;;;;;;;;5.00;5.00;;;;;19.74;60.51;99515.47;5061956;28;72083;-44
2022/11/04 00:57:08;;;;;;;;;6.00;5.00;;;;;19.74;60.03;99515.47;5062356;28;45335;-45
2022/11/04 00:59:34;;;;;;;;;7.00;4.25;;;;;19.74;60.20;99520.75;5061621;28;46109;-43
2022/11/04 01:01:59;;;;;;;;;4.00;3.75;;;;;19.74;60.22;99510.16;5062366;28;45401;-46
2022/11/04 01:04:24;;;;;;;;;9.25;6.25;;;;;19.74;60.12;99506.66;5061324;28;45253;-44
2022/11/04 01:06:50;;;;;;;;;5.50;5.00;;;;;19.74;60.37;99498.72;5061783;28;65456;-43
2022/11/04 01:09:15;;;;;;;;;6.00;6.00;;;;;19.74;60.17;99504.88;5062088;28;61077;-42
2022/11/04 01:11:41;;;;;;;;;6.00;5.50;;;;;19.75;60.57;99495.13;5061702;28;55238;-43
2022/11/04 01:14:06;;;;;;;;;9.75;4.50;;;;;19.75;60.31;99487.19;5044603;28;45288;-45
2022/11/04 01:16:32;;;;;;;;;4.00;4.00;;;;;19.73;60.27;99487.28;5061967;28;58711;-44
2022/11/04 01:18:57;;;;;;;;;4.75;4.00;;;;;19.74;60.29;99486.34;5062463;28;45353;-45
2022/11/04 01:21:23;;;;;;;;;6.25;5.00;;;;;19.73;60.12;99484.63;5044017;28;47946;-45
2022/11/04 01:23:48;;;;;;;;;6.00;6.00;;;;;19.75;60.15;99490.69;5062468;28;45358;-42
2022/11/04 01:26:18;;;;;;;;;3.50;3.50;;;;;19.74;60.54;99483.69;5061784;28;45318;-43
2022/11/04 01:28:44;;;;;;;;;5.00;3.50;;;;;19.74;60.24;99488.13;5061721;28;46970;-42
2022/11/04 01:31:11;;;;;;;;;4.50;4.50;;;;;19.74;60.29;99488.13;5061929;28;45588;-43
2022/11/04 01:33:36;;;;;;;;;9.00;5.25;;;;;19.74;60.30;99486.34;5044092;28;45294;-44
2022/11/04 01:36:02;;;;;;;;;9.50;5.50;;;;;19.73;60.38;99481.97;5058096;28;45219;-43
2022/11/04 01:38:27;;;;;;;;;7.00;4.75;;;;;19.73;60.30;99489.06;5052681;28;45319;-43
2022/11/04 01:40:53;;;;;;;;;7.75;4.75;;;;;19.72;60.30;99487.31;5059309;28;73445;-43
2022/11/04 01:43:20;;;;;;;;;5.25;5.00;;;;;19.73;60.31;99474.03;5061018;28;73333;-48
2022/11/04 01:45:58;;;;;;;;;6.25;2.75;;;;;19.72;60.36;99469.69;5061778;28;45396;-44
2022/11/04 01:48:25;;;;;;;;;5.50;4.50;;;;;19.72;60.65;99479.38;5060545;28;45426;-46
2022/11/04 01:50:51;;;;;;;;;4.00;4.00;;;;;19.72;60.33;99474.09;5061295;28;45307;-45
2022/11/04 01:53:27;;;;;;;;;7.00;5.25;;;;;19.70;60.27;99471.53;5042992;28;66162;-46
2022/11/04 01:55:57;;;;;;;;;2.50;2.50;;;;;19.70;60.43;99466.22;5043920;28;45385;-46
2022/11/04 01:58:25;;;;;;;;;5.25;4.50;;;;;19.70;60.33;99468.03;5059944;28;53474;-46
2022/11/04 02:00:50;;;;;;;;;7.00;5.00;;;;;19.68;60.91;99468.09;5060493;28;46427;-43
2022/11/04 02:03:17;;;;;;;;;7.00;5.25;;;;;19.67;60.28;99455.81;5061624;28;45421;-43
2022/11/04 02:05:43;;;;;;;;;4.50;3.50;;;;;19.67;60.52;99453.16;5044209;28;45375;-44
2022/11/04 02:08:08;;;;;;;;;6.25;5.00;;;;;19.67;60.27;99445.22;5059540;28;67081;-46
2022/11/04 02:10:34;;;;;;;;;7.50;6.00;;;;;19.66;60.39;99450.59;5043358;28;47181;-44
2022/11/04 02:13:01;;;;;;;;;4.75;4.75;;;;;19.66;60.37;99463.81;5060033;28;45414;-43
2022/11/04 02:15:35;;;;;;;;;5.00;4.25;;;;;19.66;60.44;99459.38;5061585;28;45316;-44
2022/11/04 02:18:19;;;;;;;;;7.75;6.00;;;;;19.66;60.49;99440.00;5046677;28;45811;-44
2022/11/04 02:21:15;;;;;;;;;4.00;4.00;;;;;19.65;60.21;99435.63;5048299;28;46040;-44
2022/11/04 02:23:40;;;;;;;;;4.00;4.00;;;;;19.64;60.80;99431.28;5050491;28;45485;-43
2022/11/04 02:26:15;;;;;;;;;4.50;4.50;;;;;19.63;60.76;99437.47;5061303;28;45393;-45
2022/11/04 02:28:59;;;;;;;;;5.00;5.00;;;;;19.64;60.72;99444.53;5060018;28;45337;-43
2022/11/04 02:32:17;;;;;;;;;8.25;6.25;;;;;19.62;60.88;99447.22;5059771;27;46686;-42
2022/11/04 02:35:03;;;;;;;;;4.75;4.50;;;;;19.61;60.42;99450.78;5022114;28;46270;-44
2022/11/04 02:37:34;;;;;;;;;4.25;4.00;;;;;19.61;60.38;99450.78;5022134;28;45346;-46
2022/11/04 02:40:07;;;;;;;;;5.25;3.50;;;;;19.61;60.81;99456.09;5039292;28;45356;-42
2022/11/04 02:42:41;;;;;;;;;5.00;3.50;;;;;19.61;60.75;99449.94;5056635;28;46385;-43
2022/11/04 02:45:38;;;;;;;;;4.75;3.25;;;;;19.60;60.56;99454.38;5047663;28;50873;-42
2022/11/04 02:48:15;;;;;;;;;8.50;4.25;;;;;19.61;60.31;99448.16;5050668;28;45287;-46
2022/11/04 02:50:44;;;;;;;;;7.00;4.75;;;;;19.61;60.63;99448.16;5043026;28;45488;-43
2022/11/04 02:53:30;;;;;;;;;3.50;3.50;;;;;19.61;61.08;99437.56;5042931;28;47106;-48
2022/11/04 02:55:56;;;;;;;;;5.00;5.00;;;;;19.61;60.74;99434.06;5059470;28;45905;-45
2022/11/04 02:58:28;;;;;;;;;8.25;4.75;;;;;19.61;60.46;99426.13;5042559;28;45281;-43
2022/11/04 03:00:54;;;;;;;;;5.00;4.00;;;;;19.61;60.64;99434.91;5042943;28;45447;-42
2022/11/04 03:03:24;;;;;;;;;5.50;4.00;;;;;19.60;60.59;99419.97;5060511;28;45288;-44
2022/11/04 03:05:51;;;;;;;;;3.25;3.25;;;;;19.60;60.47;99425.25;5059399;28;45418;-42
2022/11/04 03:08:37;;;;;;;;;4.50;3.25;;;;;19.60;60.70;99425.25;5059237;28;45588;-45
2022/11/04 03:11:17;;;;;;;;;4.50;3.50;;;;;19.60;60.66;99421.75;5060335;28;45517;-43
2022/11/04 03:14:10;;;;;;;;;6.00;3.00;;;;;19.60;60.41;99422.63;5060414;28;46234;-41
2022/11/04 03:16:38;;;;;;;;;5.00;3.75;;;;;19.60;60.74;99416.47;5059061;28;45223;-44
2022/11/04 03:19:15;;;;;;;;;5.00;3.75;;;;;19.60;60.60;99414.69;5059633;28;45385;-43
2022/11/04 03:21:52;;;;;;;;;3.25;3.25;;;;;19.59;60.88;99399.72;5059261;28;48641;-45
2022/11/04 03:24:17;;;;;;;;;3.75;3.50;;;;;19.59;60.72;99401.53;5059199;28;45263;-42
2022/11/04 03:26:58;;;;;;;;;9.25;9.25;;;;;19.58;60.89;99395.38;5058422;28;61106;-43
2022/11/04 03:29:35;;;;;;;;;3.50;3.50;;;;;19.58;60.48;99395.38;5026378;28;45331;-42
2022/11/04 03:32:10;;;;;;;;;4.50;2.75;;;;;19.58;60.81;99398.03;5060355;28;45302;-43
2022/11/04 03:34:36;;;;;;;;;5.75;4.00;;;;;19.59;60.91;99393.59;5059004;28;45433;-43
2022/11/04 03:37:01;;;;;;;;;6.00;3.75;;;;;19.59;60.83;99393.59;5042212;28;45398;-44
2022/11/04 03:39:26;;;;;;;;;2.50;2.50;;;;;19.59;60.82;99391.78;5059001;28;45940;-44
2022/11/04 03:41:54;;;;;;;;;3.25;3.25;;;;;19.60;60.78;99390.00;5057622;28;72741;-42
2022/11/04 03:44:19;;;;;;;;;4.50;3.00;;;;;19.59;60.94;99388.28;5058793;28;45323;-46
2022/11/04 03:46:45;;;;;;;;;4.75;4.00;;;;;19.58;60.56;99392.72;5058360;28;61688;-44
2022/11/04 03:49:10;;;;;;;;;6.25;6.00;;;;;19.58;60.53;99384.78;5041390;28;60683;-48
2022/11/04 03:51:36;;;;;;;;;4.50;4.00;;;;;19.58;60.90;99386.59;5057962;28;58403;-45
2022/11/04 03:54:01;;;;;;;;;4.25;4.00;;;;;19.58;60.64;99390.09;5058989;28;70574;-48
2022/11/04 03:56:49;;;;;;;;;5.50;5.00;;;;;19.59;60.64;99375.06;5040778;28;66696;-45
2022/11/04 03:59:36;;;;;;;;;6.25;5.00;;;;;19.58;60.29;99384.78;5059454;28;45378;-43
2022/11/04 04:02:10;;;;;;;;;9.50;4.50;;;;;19.56;60.40;99384.00;5059946;28;45379;-42
2022/11/04 04:04:37;;;;;;;;;3.00;2.75;;;;;19.57;60.71;99379.56;5058784;28;46478;-44
2022/11/04 04:07:43;;;;;;;;;5.00;5.00;;;;;19.56;60.63;99391.97;5042098;28;45278;-43
2022/11/04 04:10:39;;;;;;;;;3.25;3.25;;;;;19.56;60.89;99406.94;5020794;28;45439;-45
2022/11/04 04:13:17;;;;;;;;;2.50;2.50;;;;;19.55;60.63;99402.59;5062278;28;45662;-43
2022/11/04 04:16:03;;;;;;;;;5.50;2.75;;;;;19.54;60.82;99392.91;5058689;28;46250;-47
2022/11/04 04:18:33;;;;;;;;;5.00;5.00;;;;;19.53;60.63;99384.13;5058320;28;45342;-43
2022/11/04 04:20:58;;;;;;;;;4.50;3.50;;;;;19.54;60.88;99390.25;5058639;28;45319;-41
2022/11/04 04:28:54;;;;;;;;;4.50;3.75;;;;;19.52;60.78;99400.94;5044359;28;45308;-42
2022/11/04 04:34:03;;;;;;;;;2.25;2.25;;;;;19.51;60.69;99407.16;5058711;28;45401;-43
2022/11/04 04:36:30;;;;;;;;;4.25;4.25;;;;;19.52;60.81;99403.56;5051208;28;69234;-46
2022/11/04 04:47:10;;;;;;;;;4.00;4.00;;;;;19.51;60.69;99403.66;5059576;28;45371;-43
2022/11/04 04:49:35;;;;;;;;;5.00;4.00;;;;;19.50;60.74;99397.50;5041304;28;45202;-46
2022/11/04 04:52:01;;;;;;;;;4.25;4.25;;;;;19.51;60.48;99398.38;5059322;28;45833;-47
2022/11/04 04:54:27;;;;;;;;;4.50;4.25;;;;;19.50;60.66;99400.16;5058432;28;45251;-46
2022/11/04 04:56:52;;;;;;;;;8.75;5.00;;;;;19.50;61.00;99408.09;5058776;28;45336;-49
2022/11/04 04:59:18;;;;;;;;;5.75;3.75;;;;;19.50;61.08;99405.44;5058522;28;68854;-44
2022/11/04 05:01:43;;;;;;;;;5.25;3.50;;;;;19.49;60.52;99415.16;5057914;28;45307;-48
2022/11/04 05:04:09;;;;;;;;;3.50;3.50;;;;;19.48;60.81;99408.16;5060079;28;67412;-47
2022/11/04 05:06:34;;;;;;;;;3.25;3.25;;;;;19.49;61.06;99409.88;5061845;28;68624;-46
2022/11/04 05:08:59;;;;;;;;;4.50;4.00;;;;;19.49;60.97;99398.44;5062186;28;54508;-40
2022/11/04 05:11:25;;;;;;;;;3.00;3.00;;;;;19.49;60.95;99396.66;5059954;28;69389;-44
2022/11/04 05:13:50;;;;;;;;;5.25;3.25;;;;;19.49;61.08;99396.66;5061986;28;62886;-43
2022/11/04 05:16:15;;;;;;;;;7.00;3.75;;;;;19.50;60.95;99400.16;5061653;28;70946;-44
2022/11/04 05:18:41;;;;;;;;;3.50;3.25;;;;;19.49;60.89;99404.59;5061897;28;62700;-43
2022/11/04 05:21:07;;;;;;;;;3.00;3.00;;;;;19.49;60.90;99406.38;5060363;28;62432;-42
2022/11/04 05:23:35;;;;;;;;;3.00;2.00;;;;;19.48;61.05;99409.97;5062689;28;45149;-43
2022/11/04 05:26:01;;;;;;;;;4.00;3.75;;;;;19.47;61.01;99411.75;5061997;28;46433;-41
2022/11/04 05:28:26;;;;;;;;;6.50;5.75;;;;;19.47;60.71;99410.91;5061221;28;71569;-45
2022/11/04 05:30:51;;;;;;;;;3.00;3.00;;;;;19.46;60.69;99410.03;5060932;28;45246;-43
2022/11/04 05:33:17;;;;;;;;;5.00;5.00;;;;;19.46;60.63;99403.91;5044303;28;45546;-43
2022/11/04 05:35:42;;;;;;;;;6.25;4.25;;;;;19.46;60.78;99407.41;5061426;28;57782;-43
2022/11/04 05:38:07;;;;;;;;;3.50;2.75;;;;;19.46;60.61;99410.03;5061624;28;62784;-43
2022/11/04 05:40:33;;;;;;;;;4.50;3.50;;;;;19.46;60.93;99411.84;5060788;28;68568;-44
2022/11/04 05:42:59;;;;;;;;;5.00;4.00;;;;;19.45;60.74;99410.94;5060907;28;45343;-44
2022/11/04 05:45:25;;;;;;;;;4.75;2.50;;;;;19.46;60.79;99410.03;5061880;28;45407;-42
2022/11/04 05:48:00;;;;;;;;;4.25;2.50;;;;;19.46;60.92;99415.34;5061913;28;45468;-41
2022/11/04 05:50:26;;;;;;;;;6.25;4.25;;;;;19.45;60.77;99416.25;5060509;28;45336;-45
2022/11/04 05:52:51;;;;;;;;;3.25;3.25;;;;;19.45;60.70;99421.53;5060989;28;45253;-42
2022/11/04 05:55:16;;;;;;;;;3.50;3.50;;;;;19.45;60.78;99426.81;5061545;28;46010;-43
2022/11/04 05:57:42;;;;;;;;;5.00;3.75;;;;;19.45;60.83;99444.50;5061978;28;45371;-42
2022/11/04 06:00:09;;;;;;;;;4.75;4.75;;;;;19.44;60.98;99434.84;5060396;28;48918;-44
2022/11/04 06:02:34;;;;;;;;;5.00;4.00;;;;;19.43;60.81;99436.63;5061636;28;45636;-45
2022/11/04 06:05:00;;;;;;;;;7.00;3.25;;;;;19.44;60.78;99453.34;5061480;28;46919;-42
2022/11/04 06:07:25;;;;;;;;;4.00;4.00;;;;;19.44;60.73;99448.06;5061660;28;45264;-44
2022/11/04 06:09:50;;;;;;;;;8.50;4.00;;;;;19.44;60.59;99461.28;5061564;28;50987;-46
2022/11/04 06:12:16;;;;;;;;;3.75;3.75;;;;;19.43;60.77;99459.59;5060021;28;60533;-46
2022/11/04 06:14:42;;;;;;;;;5.00;4.75;;;;;19.44;60.93;99458.66;5061242;28;46159;-43
2022/11/04 06:17:19;;;;;;;;;6.00;5.00;;;;;19.43;60.86;99457.78;5060481;28;45366;-42
2022/11/04 06:19:44;;;;;;;;;7.50;5.25;;;;;19.45;60.93;99463.00;5044985;28;45331;-43
2022/11/04 06:22:10;;;;;;;;;4.50;4.25;;;;;19.45;60.91;99465.66;5061259;28;47541;-41
2022/11/04 06:24:36;;;;;;;;;5.25;4.50;;;;;19.43;60.71;99471.03;5059735;28;47199;-43
2022/11/04 06:27:01;;;;;;;;;3.50;3.50;;;;;19.44;60.75;99477.19;5059585;28;57592;-44
2022/11/04 06:29:26;;;;;;;;;4.00;3.50;;;;;19.43;61.26;99473.66;5060581;28;62338;-44
2022/11/04 06:31:52;;;;;;;;;3.25;3.25;;;;;19.44;60.81;99474.53;5060586;28;67622;-43
2022/11/04 06:34:17;;;;;;;;;4.50;4.50;;;;;19.43;60.95;99470.16;5061028;28;46017;-41
2022/11/04 06:36:43;;;;;;;;;3.50;3.50;;;;;19.42;60.78;99471.97;5050739;28;73090;-46
2022/11/04 06:39:08;;;;;;;;;4.25;4.25;;;;;19.42;60.90;99471.97;5055911;28;45291;-42
2022/11/04 06:41:33;;;;;;;;;7.00;3.75;;;;;19.40;60.92;99468.53;5033143;28;61203;-43
2022/11/04 06:43:59;;;;;;;;;2.50;2.50;;;;;19.42;60.61;99473.75;5041169;28;66610;-43
2022/11/04 06:46:32;;;;;;;;;6.75;6.25;;;;;19.42;60.75;99474.59;5061018;28;52609;-42
2022/11/04 06:48:57;;;;;;;;;5.25;3.25;;;;;19.42;60.84;99468.47;5059762;28;45349;-44
2022/11/04 06:51:23;;;;;;;;;6.50;4.00;;;;;19.42;60.84;99476.41;5060909;28;45298;-43
2022/11/04 06:53:48;;;;;;;;;5.75;4.75;;;;;19.41;60.98;99480.84;5060720;28;45243;-43
2022/11/04 06:56:14;;;;;;;;;5.25;3.25;;;;;19.41;61.03;99482.63;5060626;28;45295;-43
2022/11/04 06:58:39;;;;;;;;;4.00;3.25;;;;;19.41;61.16;99482.63;5059497;28;45311;-42
2022/11/04 07:01:05;;;;;;;;;8.25;4.50;;;;;19.42;61.00;99479.03;5059594;28;45243;-41
2022/11/04 07:03:30;;;;;;;;;3.25;3.25;;;;;19.41;61.14;99479.97;5042672;28;48294;-43
2022/11/04 07:05:55;;;;;;;;;3.50;3.50;;;;;19.40;61.15;99489.69;5057217;28;45456;-43
2022/11/04 07:08:21;;;;;;;;;4.75;3.00;;;;;19.41;60.99;99493.19;5059911;28;45571;-43
2022/11/04 07:10:46;;;;;;;;;4.00;4.00;;;;;19.40;61.22;99499.44;5059316;28;47566;-43
2022/11/04 07:13:11;;;;;;;;;6.00;4.25;;;;;19.38;61.32;99494.22;5059851;28;63244;-44
2022/11/04 07:15:38;;;;;;;;;3.50;3.50;;;;;19.38;61.34;99496.88;5059006;28;45744;-44
2022/11/04 07:18:03;;;;;;;;;5.00;4.00;;;;;19.39;61.38;99503.88;5060587;28;45290;-44
2022/11/04 07:20:29;;;;;;;;;4.50;4.50;;;;;19.38;61.41;99512.75;5059347;28;45366;-43
2022/11/04 07:22:54;;;;;;;;;3.50;2.75;;;;;19.38;61.54;99517.16;5060260;28;46966;-42
2022/11/04 07:25:20;;;;;;;;;4.50;4.00;;;;;19.37;61.47;99516.31;5057993;28;57103;-44
2022/11/04 07:27:45;;;;;;;;;4.00;3.00;;;;;19.38;61.02;99522.47;5057519;28;68191;-41
2022/11/04 07:30:10;;;;;;;;;6.25;5.50;;;;;19.37;61.33;99521.59;5057728;28;65954;-40
2022/11/04 07:32:36;;;;;;;;;3.75;3.00;;;;;19.37;61.10;99531.31;5044035;28;46430;-44
2022/11/04 07:35:01;;;;;;;;;3.25;3.00;;;;;19.37;61.35;99526.00;5059202;28;45352;-42
2022/11/04 07:37:27;;;;;;;;;3.50;3.50;;;;;19.37;61.22;99537.47;5048107;28;54840;-42
2022/11/04 07:39:52;;;;;;;;;8.25;5.00;;;;;19.38;61.57;99539.19;5059044;28;45418;-44
2022/11/04 07:42:17;;;;;;;;;4.75;4.00;;;;;19.39;61.69;99553.28;5041870;28;46707;-41
2022/11/04 07:44:43;;;;;;;;;4.50;4.50;;;;;19.39;61.25;99553.28;5059586;28;45714;-41
2022/11/04 07:47:08;;;;;;;;;3.75;3.50;;;;;19.39;61.83;99562.06;5059675;28;55976;-40
2022/11/04 07:49:33;;;;;;;;;4.50;2.50;;;;;19.39;61.78;99556.78;5059064;28;68611;-43
2022/11/04 07:51:59;;;;;;;;;4.00;3.00;;;;;19.40;61.84;99562.94;5058710;28;53018;-40
2022/11/04 07:54:24;;;;;;;;;3.25;3.25;;;;;19.40;61.67;99568.22;5057466;28;52321;-41
2022/11/04 07:56:50;;;;;;;;;4.00;4.00;;;;;19.41;61.37;99569.94;5058979;28;45214;-41
2022/11/04 07:59:15;;;;;;;;;9.00;5.00;;;;;19.43;61.52;99579.50;5059179;28;55397;-41
2022/11/04 08:01:40;;;;;;;;;4.00;2.50;;;;;19.44;61.50;99580.38;5057501;28;68357;-44
2022/11/04 08:04:06;;;;;;;;;5.50;4.00;;;;;19.45;61.74;99582.09;5058791;28;73325;-45
2022/11/04 08:06:32;;;;;;;;;4.75;4.75;;;;;19.46;61.72;99591.78;5058320;28;45445;-43
2022/11/04 08:08:57;;;;;;;;;5.25;5.00;;;;;19.46;61.71;99589.97;5058494;28;45622;-46
2022/11/04 08:11:27;;;;;;;;;6.25;3.50;;;;;19.47;61.41;99596.97;5059206;28;46172;-44
2022/11/04 08:13:53;;;;;;;;;5.00;4.75;;;;;19.50;61.74;99595.97;5059065;28;45306;-43
2022/11/04 08:16:19;;;;;;;;;6.50;3.25;;;;;19.52;61.88;99603.84;5058672;28;45449;-45
2022/11/04 08:18:45;;;;;;;;;5.50;2.50;;;;;19.52;61.54;99610.00;5058750;28;45304;-43
2022/11/04 08:21:10;;;;;;;;;3.75;3.00;;;;;19.54;61.56;99613.41;5059635;28;45311;-41
2022/11/04 08:23:36;;;;;;;;;5.50;3.25;;;;;19.56;61.77;99616.91;5058946;28;45163;-45
2022/11/04 08:26:02;;;;;;;;;4.00;4.00;;;;;19.57;61.37;99613.34;5048088;28;45292;-43
2022/11/04 08:28:28;;;;;;;;;7.75;4.50;;;;;19.60;61.91;99620.25;5041145;28;45410;-43
2022/11/04 08:31:01;;;;;;;;;6.25;4.25;;;;;19.60;61.72;99622.91;5041082;28;47307;-40
2022/11/04 08:33:27;;;;;;;;;5.75;4.00;;;;;19.60;61.59;99618.47;5059231;28;45287;-42
2022/11/04 08:35:53;;;;;;;;;5.25;4.50;;;;;19.61;61.72;99622.84;5059395;28;45558;-40
2022/11/04 08:38:18;;;;;;;;;4.00;4.00;;;;;19.62;61.85;99627.19;5057450;28;45524;-43
2022/11/04 08:40:44;;;;;;;;;5.75;4.50;;;;;19.62;61.67;99627.19;5061868;28;46341;-42
2022/11/04 08:43:09;;;;;;;;;2.25;2.25;;;;;19.63;61.58;99633.34;5047534;28;45257;-41
2022/11/04 08:45:42;;;;;;;;;5.00;5.00;;;;;19.63;61.69;99639.50;5060755;28;61036;-43
2022/11/04 08:48:08;;;;;;;;;4.50;4.50;;;;;19.64;61.85;99645.69;5062936;28;45434;-42
2022/11/04 08:50:34;;;;;;;;;6.25;3.50;;;;;19.65;61.39;99650.03;5061049;28;45942;-42
2022/11/04 08:52:59;;;;;;;;;3.75;3.75;;;;;19.65;61.78;99647.41;5062529;28;45370;-42
2022/11/04 08:55:26;;;;;;;;;5.25;3.25;;;;;19.65;61.67;99666.78;5061718;28;63754;-42
2022/11/04 08:57:53;;;;;;;;;5.00;3.75;;;;;19.65;61.74;99666.78;5043891;28;45520;-43
2022/11/04 09:00:19;;;;;;;;;9.00;6.50;;;;;19.66;61.32;99673.78;5060415;28;46148;-42
2022/11/04 09:02:45;;;;;;;;;5.25;4.50;;;;;19.66;61.27;99683.53;5027787;28;45341;-41
2022/11/04 09:05:10;;;;;;;;;4.50;4.50;;;;;19.66;61.09;99687.03;5044755;28;45500;-42
2022/11/04 09:07:36;;;;;;;;;3.75;3.50;;;;;19.65;60.68;99682.66;5043882;28;68044;-41
2022/11/04 09:10:02;;;;;;;;;6.00;6.00;;;;;19.66;61.30;99689.69;5060907;28;46232;-42
2022/11/04 09:12:28;;;;;;;;;4.00;3.50;;;;;19.65;61.05;99687.97;5061150;28;45385;-43
2022/11/04 09:14:53;;;;;;;;;6.75;5.50;;;;;19.65;61.36;99693.25;5061347;28;45259;-47
2022/11/04 09:17:19;;;;;;;;;5.75;3.25;;;;;19.65;61.25;99706.50;5027881;28;45439;-42
2022/11/04 09:19:44;;;;;;;;;5.00;4.75;;;;;19.64;61.24;99704.78;5061271;28;47980;-42
2022/11/04 09:22:10;;;;;;;;;5.25;4.25;;;;;19.62;61.27;99709.25;5061120;28;45284;-41
2022/11/04 09:24:35;;;;;;;;;5.50;5.00;;;;;19.63;61.75;99716.25;5060527;28;58837;-41
2022/11/04 09:27:01;;;;;;;;;5.00;2.50;;;;;19.61;61.71;99707.53;5062466;28;45436;-41
2022/11/04 09:29:27;;;;;;;;;5.00;3.00;;;;;19.62;61.17;99721.63;5062286;28;45884;-42
2022/11/04 09:31:52;;;;;;;;;5.25;4.50;;;;;19.61;61.31;99726.06;5027738;28;45366;-41
2022/11/04 09:34:17;;;;;;;;;4.00;4.00;;;;;19.60;61.67;99726.13;5061815;28;59143;-41
2022/11/04 09:36:43;;;;;;;;;5.25;4.00;;;;;19.58;61.46;99731.50;5037425;28;45423;-41
2022/11/04 09:39:09;;;;;;;;;5.00;3.00;;;;;19.58;61.35;99738.59;5057214;28;69740;-42
2022/11/04 09:41:37;;;;;;;;;4.50;3.25;;;;;19.57;61.48;99737.72;5061961;28;45252;-41
2022/11/04 09:44:27;;;;;;;;;4.25;2.75;;;;;19.56;61.41;99743.94;5062100;28;45265;-44
2022/11/04 09:46:59;;;;;;;;;6.50;4.75;;;;;19.55;61.45;99746.63;5045578;28;45356;-42
2022/11/04 09:49:26;;;;;;;;;3.25;3.25;;;;;19.55;61.31;99750.16;5043861;28;46255;-42
2022/11/04 09:51:52;;;;;;;;;4.00;2.75;;;;;19.55;61.14;99755.44;5060723;28;45350;-43
2022/11/04 09:54:22;;;;;;;;;6.75;3.00;;;;;19.56;61.62;99761.59;5023475;28;57688;-43
2022/11/04 09:56:50;;;;;;;;;3.50;3.50;;;;;19.56;61.07;99773.06;5038379;28;45558;-41
2022/11/04 09:59:23;;;;;;;;;3.25;3.25;;;;;19.55;61.52;99768.66;5060756;28;46362;-42
2022/11/04 10:02:13;;;;;;;;;4.25;2.50;;;;;19.56;61.71;99785.41;5060565;28;45373;-41
2022/11/04 10:05:03;;;;;;;;;4.25;4.25;;;;;19.55;61.55;99786.34;5061923;28;45235;-42
2022/11/04 10:07:57;;;;;;;;;5.25;4.50;;;;;19.56;61.48;99793.34;5061781;28;45416;-41
2022/11/04 10:10:45;;;;;;;;;3.25;2.50;;;;;19.57;61.17;99793.31;5060102;28;45398;-43
2022/11/04 10:13:55;;;;;;;;;4.00;4.00;;;;;19.58;60.99;99808.25;5060373;28;45343;-43
2022/11/04 10:16:29;;;;;;;;;7.00;3.25;;;;;19.59;61.50;99809.13;5060633;28;45364;-42
2022/11/04 10:19:07;;;;;;;;;6.50;5.00;;;;;19.59;61.02;99820.56;5043571;28;45519;-45
2022/11/04 10:21:33;;;;;;;;;6.00;3.00;;;;;19.60;61.05;99821.44;5061348;28;45394;-44
2022/11/04 10:24:12;;;;;;;;;6.50;3.25;;;;;19.61;60.87;99825.78;5061408;28;45308;-42
2022/11/04 10:26:49;;;;;;;;;4.25;3.75;;;;;19.62;60.79;99840.75;5060139;28;45365;-43
2022/11/04 10:29:54;;;;;;;;;2.75;2.75;;;;;19.63;60.99;99847.75;5061208;28;45240;-43
2022/11/04 10:32:38;;;;;;;;;4.00;4.00;;;;;19.66;60.85;99852.94;5050074;28;46196;-46
2022/11/04 10:35:27;;;;;;;;;4.50;4.25;;;;;19.67;61.37;99857.31;5018389;28;45324;-44
2022/11/04 10:37:52;;;;;;;;;4.75;3.75;;;;;19.70;60.48;99858.03;5045318;28;45394;-46
2022/11/04 10:40:29;;;;;;;;;1.75;1.25;;;;;19.72;60.70;99876.47;5059924;28;45258;-42
2022/11/04 10:42:56;;;;;;;;;3.75;2.00;;;;;19.74;60.60;99878.16;5043871;28;46961;-41
2022/11/04 10:45:26;;;;;;;;;3.75;3.75;;;;;19.76;60.71;99883.38;5042938;28;49223;-42
2022/11/04 10:48:06;;;;;;;;;4.50;3.25;;;;;19.77;60.04;99888.63;5043815;28;45537;-42
2022/11/04 10:50:40;;;;;;;;;2.50;2.25;;;;;19.77;60.47;99885.97;5060567;28;50304;-41
2022/11/04 10:53:10;;;;;;;;;4.00;4.00;;;;;19.80;60.25;99887.63;5043320;28;46480;-41
2022/11/04 10:56:09;;;;;;;;;3.00;3.00;;;;;19.82;60.09;99898.16;5059432;28;45480;-40
2022/11/04 10:58:38;;;;;;;;;5.00;2.75;;;;;19.85;59.99;99892.72;5041810;28;45369;-41
2022/11/04 11:01:31;;;;;;;;;6.00;4.00;;;;;19.87;59.85;99904.13;5075609;28;45306;-41
2022/11/04 11:03:56;;;;;;;;;3.50;3.50;;;;;19.87;57.61;99901.47;5060298;28;46145;-42
2022/11/04 11:06:30;;;;;;;;;4.75;4.25;;;;;19.69;56.33;99903.09;5025495;28;45363;-39
2022/11/04 11:09:00;;;;;;;;;3.75;2.50;;;;;19.46;53.88;99909.31;5059566;28;45299;-40
2022/11/04 11:11:46;;;;;;;;;5.00;2.50;;;;;19.15;54.80;99913.19;5059140;28;45469;-40
2022/11/04 11:14:35;;;;;;;;;2.25;1.50;;;;;18.86;54.07;99914.31;5060081;28;45320;-42
2022/11/04 11:17:13;;;;;;;;;4.50;2.50;;;;;18.60;53.37;99927.59;5053983;28;45699;-41
2022/11/04 11:19:52;;;;;;;;;1.00;1.00;;;;;18.40;53.77;99922.16;5060243;28;45190;-40
2022/11/04 11:22:30;;;;;;;;;1.50;1.50;;;;;18.23;53.44;99925.41;5060498;28;45332;-42
2022/11/04 11:25:29;;;;;;;;;1.00;1.00;;;;;18.08;53.41;99926.81;5060198;28;46511;-41
2022/11/04 11:27:58;;;;;;;;;4.25;1.00;;;;;17.91;53.03;99934.44;5016499;28;46077;-43
2022/11/04 11:30:33;;;;;;;;;1.00;1.00;;;;;17.79;54.58;99933.91;5060402;28;45378;-41
2022/11/04 11:33:06;;;;;;;;;1.50;1.00;;;;;17.85;56.02;99940.78;5057746;28;45335;-42
2022/11/04 11:35:45;;;;;;;;;4.25;2.00;;;;;17.97;56.44;99935.06;5041966;28;47563;-41
2022/11/04 11:38:35;;;;;;;;;2.25;2.25;;;;;18.11;57.22;99941.69;5057650;28;46084;-40
2022/11/04 11:41:07;;;;;;;;;1.75;1.75;;;;;18.26;57.71;99941.16;5048007;28;45215;-40
2022/11/04 11:43:33;;;;;;;;;4.00;3.00;;;;;18.36;57.25;99943.41;5060010;28;45429;-41
2022/11/04 11:45:59;;;;;;;;;2.50;2.25;;;;;18.48;57.50;99949.16;5058908;28;46614;-41
2022/11/04 11:48:31;;;;;;;;;2.00;2.00;;;;;18.56;57.47;99955.91;5058803;28;45236;-40
2022/11/04 11:50:58;;;;;;;;;3.00;1.50;;;;;18.66;57.52;99964.38;5059432;28;45334;-41
2022/11/04 11:53:25;;;;;;;;;3.50;2.25;;;;;18.74;57.24;99967.63;5042365;28;45267;-40
2022/11/04 11:56:01;;;;;;;;;5.00;3.25;;;;;18.84;57.38;99978.72;5024638;28;48295;-42
2022/11/04 11:58:30;;;;;;;;;4.25;3.50;;;;;18.92;57.35;99976.66;5025049;28;45392;-40
2022/11/04 12:01:14;;;;;;;;;3.00;3.00;;;;;18.99;57.17;99994.03;5059600;28;45532;-41
2022/11/04 12:03:44;;;;;;;;;3.25;3.25;;;;;19.04;57.56;99988.56;5058831;28;47269;-41
2022/11/04 12:06:21;;;;;;;;;3.50;3.00;;;;;19.11;57.51;100003.25;5041621;28;47803;-40
2022/11/04 12:08:49;;;;;;;;;5.50;5.25;;;;;19.17;57.46;100001.25;5025985;28;45518;-39
2022/11/04 12:11:20;;;;;;;;;4.25;3.25;;;;;19.22;57.42;100014.31;5045040;28;45338;-40
2022/11/04 12:13:54;;;;;;;;;4.75;4.00;;;;;19.28;57.66;100021.16;5049845;28;45329;-41
2022/11/04 12:16:33;;;;;;;;;6.75;4.25;;;;;19.32;57.43;100022.78;5062111;28;45266;-41
2022/11/04 12:19:19;;;;;;;;;4.00;4.00;;;;;19.37;57.67;100026.97;5062012;28;45364;-42
2022/11/04 12:22:05;;;;;;;;;3.25;3.25;;;;;19.41;58.06;100033.00;5063486;28;45482;-41